createdAt,value
2022-09-07T00:02:58.275Z,7.60
2022-09-07T00:08:01.476Z,7.90
2022-09-07T00:13:07.139Z,10.60
2022-09-07T00:18:10.054Z,10.00
2022-09-07T00:23:13.789Z,7.40
2022-09-07T00:28:16.700Z,8.80
2022-09-07T00:33:19.651Z,8.50
2022-09-07T00:38:22.706Z,9.50
2022-09-07T00:43:43.033Z,6.90
2022-09-07T00:49:08.274Z,9.20
2022-09-07T00:54:41.181Z,7.60
2022-09-07T00:59:49.996Z,7.20
2022-09-07T01:05:09.281Z,9.00
2022-09-07T01:10:13.307Z,7.60
2022-09-07T01:15:16.430Z,11.70
2022-09-07T01:21:00.318Z,9.70
2022-09-07T01:26:31.796Z,7.60
2022-09-07T01:31:52.294Z,6.60
2022-09-07T01:37:43.413Z,7.70
2022-09-07T01:43:23.176Z,7.30
2022-09-07T01:48:27.280Z,9.40
2022-09-07T01:53:38.648Z,7.90
2022-09-07T01:58:56.788Z,9.70
2022-09-07T02:04:10.421Z,8.70
2022-09-07T02:09:25.138Z,9.30
2022-09-07T02:14:37.167Z,8.60
2022-09-07T02:19:52.242Z,10.50
2022-09-07T02:25:00.080Z,11.40
2022-09-07T02:30:03.330Z,9.40
2022-09-07T02:35:07.462Z,7.90
2022-09-07T02:40:11.643Z,7.50
2022-09-07T02:45:17.432Z,9.30
2022-09-07T02:50:20.252Z,8.70
2022-09-07T02:55:35.095Z,9.50
2022-09-07T03:01:02.394Z,7.80
2022-09-07T03:06:17.363Z,7.50
2022-09-07T03:11:21.354Z,6.90
2022-09-07T03:16:24.330Z,14.30
2022-09-07T03:21:27.273Z,8.10
2022-09-07T03:26:30.354Z,8.30
2022-09-07T03:31:35.184Z,8.00
2022-09-07T03:36:38.817Z,7.40
2022-09-07T03:41:41.865Z,7.30
2022-09-07T03:46:44.884Z,9.00
2022-09-07T03:51:47.870Z,6.30
2022-09-07T03:56:50.872Z,6.50
2022-09-07T04:01:58.889Z,6.90
2022-09-07T04:07:01.880Z,7.30
2022-09-07T04:12:05.094Z,9.40
2022-09-07T04:17:08.067Z,9.30
2022-09-07T04:22:11.069Z,6.80
2022-09-07T04:27:14.018Z,8.50
2022-09-07T04:32:16.962Z,7.50
2022-09-07T04:37:20.010Z,7.70
2022-09-07T04:42:23.010Z,9.50
2022-09-07T04:47:26.101Z,6.40
2022-09-07T04:52:29.091Z,13.10
2022-09-07T04:57:32.044Z,9.70
2022-09-07T05:02:35.429Z,8.60
2022-09-07T05:07:38.513Z,6.80
2022-09-07T05:12:41.412Z,7.10
2022-09-07T05:17:44.361Z,9.00
2022-09-07T05:22:48.473Z,9.50
2022-09-07T05:27:51.660Z,12.10
2022-09-07T05:32:54.598Z,6.10
2022-09-07T05:37:57.651Z,7.60
2022-09-07T05:43:00.797Z,6.70
2022-09-07T05:48:03.916Z,7.50
2022-09-07T05:53:07.055Z,6.40
2022-09-07T05:58:10.196Z,6.20
2022-09-07T06:03:13.467Z,5.20
2022-09-07T06:08:16.627Z,5.10
2022-09-07T06:13:19.687Z,6.30
2022-09-07T06:18:22.792Z,7.20
2022-09-07T06:23:25.902Z,6.40
2022-09-07T06:28:39.504Z,7.10
2022-09-07T06:33:45.083Z,8.30
2022-09-07T06:38:50.168Z,11.20
2022-09-07T06:43:54.843Z,6.10
2022-09-07T06:48:57.879Z,6.90
2022-09-07T06:59:25.090Z,8.60
2022-09-07T07:04:28.177Z,5.60
2022-09-07T07:09:31.113Z,6.00
2022-09-07T07:14:36.436Z,7.10
2022-09-07T07:19:41.642Z,6.50
2022-09-07T07:24:44.530Z,7.40
2022-09-07T07:29:47.994Z,7.70
2022-09-07T07:34:50.899Z,9.50
2022-09-07T07:50:39.856Z,8.70
2022-09-07T07:55:43.312Z,8.20
2022-09-07T08:00:54.892Z,7.00
2022-09-07T08:06:08.066Z,9.10
2022-09-07T08:11:17.047Z,9.70
2022-09-07T08:16:20.046Z,7.70
2022-09-07T08:21:23.042Z,9.00
2022-09-07T08:26:27.326Z,7.10
2022-09-07T08:31:30.282Z,8.10
2022-09-07T08:36:33.746Z,8.90
2022-09-07T08:42:11.288Z,6.40
2022-09-07T08:47:47.136Z,7.00
2022-09-07T08:52:56.546Z,10.40
2022-09-07T08:58:32.676Z,7.70
2022-09-07T09:09:31.075Z,7.50
2022-09-07T09:14:55.780Z,8.20
2022-09-07T09:20:31.155Z,7.90
2022-09-07T09:25:38.407Z,9.90
2022-09-07T09:30:42.272Z,6.60
2022-09-07T09:35:51.633Z,8.30
2022-09-07T09:40:56.244Z,7.90
2022-09-07T09:46:17.234Z,7.90
2022-09-07T09:56:47.880Z,9.00
2022-09-07T10:07:21.860Z,11.70
2022-09-07T10:12:32.431Z,7.50
2022-09-07T10:17:42.786Z,5.80
2022-09-07T10:22:58.700Z,8.60
2022-09-07T10:28:12.758Z,6.90
2022-09-07T10:39:29.862Z,7.90
2022-09-07T10:44:38.886Z,6.80
2022-09-07T10:55:34.942Z,6.70
2022-09-07T11:00:59.505Z,8.10
2022-09-07T11:06:22.558Z,5.80
2022-09-07T11:17:08.012Z,7.60
2022-09-07T11:22:32.212Z,5.20
2022-09-07T11:27:49.938Z,4.90
2022-09-07T11:33:06.968Z,5.20
2022-09-07T11:38:35.468Z,5.70
2022-09-07T11:43:45.810Z,6.10
2022-09-07T11:48:56.466Z,4.50
2022-09-07T11:54:41.622Z,5.00
2022-09-07T12:00:07.336Z,4.60
2022-09-07T12:05:49.586Z,6.70
2022-09-07T12:11:04.618Z,5.40
2022-09-07T12:16:58.125Z,5.40
2022-09-07T12:22:01.343Z,3.80
2022-09-07T12:27:08.542Z,6.30
2022-09-07T12:37:40.191Z,5.80
2022-09-07T12:42:43.237Z,5.00
2022-09-07T12:47:59.114Z,5.40
2022-09-07T12:53:45.471Z,5.10
2022-09-07T12:59:19.767Z,5.20
2022-09-07T13:04:52.796Z,17.00
2022-09-07T13:10:15.854Z,4.80
2022-09-07T13:16:06.100Z,7.50
2022-09-07T13:21:08.980Z,5.60
2022-09-07T13:26:52.335Z,7.50
2022-09-07T13:32:20.007Z,5.90
2022-09-07T13:37:26.044Z,5.10
2022-09-07T13:42:36.501Z,4.00
2022-09-07T13:47:54.694Z,4.30
2022-09-07T13:53:23.353Z,4.60
2022-09-07T13:58:35.385Z,7.40
2022-09-07T14:04:07.625Z,5.30
2022-09-07T14:09:18.058Z,6.40
2022-09-07T14:14:27.387Z,9.70
2022-09-07T14:19:49.628Z,5.20
2022-09-07T14:25:05.868Z,4.90
2022-09-07T14:30:33.442Z,4.40
2022-09-07T14:35:41.437Z,4.30
2022-09-07T14:40:45.588Z,5.00
2022-09-07T14:45:49.711Z,6.20
2022-09-07T14:51:05.828Z,4.10
2022-09-07T14:56:39.440Z,3.90
2022-09-07T15:01:42.426Z,4.80
2022-09-07T15:07:02.622Z,11.30
2022-09-07T15:12:36.380Z,16.60
2022-09-07T15:17:43.278Z,14.30
2022-09-07T15:22:46.699Z,9.00
2022-09-07T15:27:49.938Z,6.30
2022-09-07T15:32:57.371Z,7.00
2022-09-07T15:38:01.868Z,8.30
2022-09-07T15:43:19.558Z,9.00
2022-09-07T15:48:27.348Z,6.10
2022-09-07T15:58:54.968Z,5.00
2022-09-07T16:03:59.621Z,5.60
2022-09-07T16:09:06.240Z,4.50
2022-09-07T16:14:12.575Z,8.10
2022-09-07T16:19:20.121Z,6.20
2022-09-07T16:24:23.334Z,6.90
2022-09-07T16:29:26.405Z,9.10
2022-09-07T16:34:30.232Z,12.50
2022-09-07T16:39:34.043Z,11.10
2022-09-07T16:44:37.206Z,12.20
2022-09-07T16:49:40.565Z,10.80
2022-09-07T16:54:43.462Z,11.50
2022-09-07T16:59:46.777Z,11.00
2022-09-07T17:04:50.844Z,10.10
2022-09-07T17:09:54.407Z,39.60
2022-09-07T17:14:57.304Z,13.10
2022-09-07T17:20:00.344Z,8.20
2022-09-07T17:25:03.354Z,8.30
2022-09-07T17:30:07.001Z,12.60
2022-09-07T17:35:10.109Z,9.10
2022-09-07T17:40:13.919Z,11.20
2022-09-07T17:45:17.161Z,14.10
2022-09-07T17:50:20.070Z,13.70
2022-09-07T17:55:22.970Z,19.80
2022-09-07T18:00:26.000Z,12.90
2022-09-07T18:05:28.955Z,6.40
2022-09-07T18:16:00.185Z,10.50
2022-09-07T18:21:21.265Z,10.10
2022-09-07T18:26:52.404Z,10.00
2022-09-07T18:32:50.440Z,55.60
2022-09-07T18:38:01.975Z,25.10
2022-09-07T18:43:16.753Z,27.60
2022-09-07T18:48:33.427Z,24.20
2022-09-07T18:53:45.671Z,47.30
2022-09-07T18:59:14.269Z,60.20
2022-09-07T19:04:18.446Z,62.90
2022-09-07T19:09:27.537Z,45.30
2022-09-07T19:15:03.951Z,39.10
2022-09-07T19:20:44.023Z,34.10
2022-09-07T19:25:54.538Z,17.30
2022-09-07T19:31:27.332Z,12.80
2022-09-07T19:37:12.941Z,13.80
2022-09-07T19:42:22.713Z,14.80
2022-09-07T19:47:41.799Z,18.70
2022-09-07T19:52:50.398Z,15.20
2022-09-07T19:58:20.812Z,13.30
2022-09-07T20:03:50.791Z,10.90
2022-09-07T20:09:07.978Z,14.60
2022-09-07T20:14:17.183Z,12.70
2022-09-07T20:19:45.941Z,13.30
2022-09-07T20:25:04.469Z,11.80
2022-09-07T20:30:11.185Z,10.70
2022-09-07T20:35:39.346Z,9.60
2022-09-07T20:41:18.386Z,9.50
2022-09-07T20:46:47.033Z,7.80
2022-09-07T20:52:31.302Z,9.90
2022-09-07T20:58:53.892Z,8.40
2022-09-07T21:04:30.805Z,7.30
2022-09-07T21:10:12.572Z,9.10
2022-09-07T21:16:03.318Z,8.70
2022-09-07T21:21:39.020Z,10.80
2022-09-07T21:26:53.876Z,8.90
2022-09-07T21:32:12.902Z,8.90
2022-09-07T21:37:49.664Z,8.30
2022-09-07T21:43:29.057Z,9.40
2022-09-07T21:48:56.547Z,9.70
2022-09-07T21:55:03.122Z,10.10
2022-09-07T22:00:45.352Z,10.30
2022-09-07T22:07:02.451Z,10.10
2022-09-07T22:12:23.487Z,7.60
2022-09-07T22:17:47.385Z,7.30
2022-09-07T22:23:09.426Z,8.10
2022-09-07T22:29:16.989Z,8.40
2022-09-07T22:35:03.676Z,7.20
2022-09-07T22:40:27.168Z,8.40
2022-09-07T22:46:08.751Z,9.40
2022-09-07T22:51:54.939Z,8.90
2022-09-07T22:57:54.063Z,8.80
2022-09-07T23:03:21.096Z,7.10
2022-09-07T23:08:51.438Z,11.60
2022-09-07T23:15:16.881Z,8.40
2022-09-07T23:20:36.799Z,8.20
2022-09-07T23:26:03.937Z,6.80
2022-09-07T23:31:35.507Z,7.70
2022-09-07T23:37:07.744Z,7.60
2022-09-07T23:42:39.063Z,7.20
2022-09-07T23:48:53.279Z,6.40
2022-09-07T23:54:40.824Z,9.50
2022-09-07T23:59:49.199Z,7.00
